createdAt,value
2023-04-16T00:02:08.994Z,2.22
2023-04-16T00:04:35.759Z,1.95
2023-04-16T00:07:02.550Z,2.85
2023-04-16T00:09:29.184Z,2.30
2023-04-16T00:11:56.236Z,2.40
2023-04-16T00:14:22.855Z,2.28
2023-04-16T00:16:49.746Z,2.20
2023-04-16T00:19:16.316Z,2.45
2023-04-16T00:21:42.941Z,3.15
2023-04-16T00:24:11.516Z,2.67
2023-04-16T00:26:38.105Z,3.33
2023-04-16T00:29:05.045Z,3.40
2023-04-16T00:31:33.796Z,2.97
2023-04-16T00:34:13.805Z,3.22
2023-04-16T00:36:40.566Z,2.80
2023-04-16T00:39:07.367Z,3.58
2023-04-16T00:41:39.138Z,2.88
2023-04-16T00:44:05.880Z,3.30
2023-04-16T00:46:33.038Z,3.08
2023-04-16T00:49:01.422Z,3.22
2023-04-16T00:51:28.352Z,3.58
2023-04-16T00:53:55.222Z,3.35
2023-04-16T00:56:24.229Z,3.90
2023-04-16T00:58:51.082Z,3.67
2023-04-16T01:01:17.730Z,3.45
2023-04-16T01:03:49.571Z,2.97
2023-04-16T01:06:18.127Z,3.47
2023-04-16T01:08:45.205Z,3.38
2023-04-16T01:11:12.225Z,3.30
2023-04-16T01:13:39.777Z,3.15
2023-04-16T01:16:08.284Z,3.20
2023-04-16T01:18:35.760Z,3.30
2023-04-16T01:21:02.939Z,2.80
2023-04-16T01:23:29.767Z,3.70
2023-04-16T01:25:57.772Z,3.00
2023-04-16T01:28:27.168Z,2.80
2023-04-16T01:30:53.820Z,3.35
2023-04-16T01:33:21.544Z,3.90
2023-04-16T01:35:50.219Z,3.58
2023-04-16T01:38:17.256Z,3.30
2023-04-16T01:40:43.844Z,3.50
2023-04-16T01:43:10.586Z,3.97
2023-04-16T01:45:37.240Z,3.55
2023-04-16T01:48:04.329Z,3.75
2023-04-16T01:50:31.413Z,3.95
2023-04-16T01:52:58.177Z,3.83
2023-04-16T01:55:27.797Z,4.15
2023-04-16T01:57:54.396Z,4.97
2023-04-16T02:00:21.202Z,3.65
2023-04-16T02:02:49.460Z,4.03
2023-04-16T02:05:16.471Z,5.28
2023-04-16T02:07:43.170Z,4.50
2023-04-16T02:10:10.379Z,4.28
2023-04-16T02:12:37.025Z,4.63
2023-04-16T02:15:03.801Z,5.07
2023-04-16T02:17:30.680Z,5.63
2023-04-16T02:19:57.316Z,5.10
2023-04-16T02:22:23.946Z,5.78
2023-04-16T02:24:51.225Z,5.45
2023-04-16T02:27:17.791Z,5.30
2023-04-16T02:29:44.460Z,5.75
2023-04-16T02:32:11.232Z,6.18
2023-04-16T02:34:40.298Z,5.00
2023-04-16T02:37:06.905Z,5.63
2023-04-16T02:39:33.596Z,5.28
2023-04-16T02:42:01.519Z,5.75
2023-04-16T02:44:28.205Z,6.03
2023-04-16T02:46:54.786Z,5.72
2023-04-16T02:49:21.402Z,4.40
2023-04-16T02:51:47.981Z,4.47
2023-04-16T02:54:14.552Z,5.60
2023-04-16T02:56:41.171Z,4.82
2023-04-16T02:59:08.070Z,4.82
2023-04-16T03:01:34.912Z,4.80
2023-04-16T03:04:01.845Z,4.70
2023-04-16T03:06:28.769Z,4.88
2023-04-16T03:08:55.394Z,4.88
2023-04-16T03:11:21.999Z,4.82
2023-04-16T03:13:48.646Z,5.35
2023-04-16T03:16:15.634Z,5.22
2023-04-16T03:18:42.420Z,4.57
2023-04-16T03:21:09.087Z,4.50
2023-04-16T03:23:36.467Z,4.75
2023-04-16T03:26:03.094Z,4.20
2023-04-16T03:28:29.785Z,4.47
2023-04-16T03:30:56.534Z,4.43
2023-04-16T03:33:23.261Z,4.95
2023-04-16T03:35:57.452Z,4.60
2023-04-16T03:38:26.089Z,4.45
2023-04-16T03:40:52.676Z,4.65
2023-04-16T03:43:19.528Z,4.60
2023-04-16T03:45:46.849Z,4.93
2023-04-16T03:48:13.651Z,4.75
2023-04-16T03:50:40.499Z,4.18
2023-04-16T03:53:07.153Z,4.57
2023-04-16T03:55:34.795Z,5.63
2023-04-16T03:58:03.190Z,5.25
2023-04-16T04:00:30.633Z,4.93
2023-04-16T04:02:57.594Z,4.50
2023-04-16T04:05:24.493Z,4.25
2023-04-16T04:07:51.266Z,3.83
2023-04-16T04:10:17.993Z,5.32
2023-04-16T04:12:44.901Z,5.30
2023-04-16T04:15:12.004Z,4.72
2023-04-16T04:17:38.730Z,5.60
2023-04-16T04:20:06.397Z,5.05
2023-04-16T04:22:33.169Z,4.82
2023-04-16T04:24:59.788Z,5.72
2023-04-16T04:27:26.421Z,6.15
2023-04-16T04:29:53.538Z,5.07
2023-04-16T04:32:20.175Z,5.65
2023-04-16T04:34:46.820Z,4.82
2023-04-16T04:37:13.465Z,5.40
2023-04-16T04:39:40.472Z,5.43
2023-04-16T04:42:07.156Z,4.65
2023-04-16T04:44:33.795Z,5.80
2023-04-16T04:47:00.413Z,4.75
2023-04-16T04:49:27.067Z,5.10
2023-04-16T04:51:53.692Z,5.47
2023-04-16T04:54:20.584Z,4.90
2023-04-16T04:56:47.416Z,5.13
2023-04-16T04:59:14.030Z,5.28
2023-04-16T05:01:40.828Z,4.63
2023-04-16T05:04:07.652Z,4.55
2023-04-16T05:06:34.321Z,4.50
2023-04-16T05:09:01.085Z,4.97
2023-04-16T05:11:27.905Z,4.38
2023-04-16T05:13:54.504Z,5.10
2023-04-16T05:16:21.226Z,4.82
2023-04-16T05:18:47.893Z,4.72
2023-04-16T05:21:14.485Z,4.60
2023-04-16T05:23:41.620Z,4.80
2023-04-16T05:26:08.263Z,5.80
2023-04-16T05:28:34.894Z,4.88
2023-04-16T05:31:01.561Z,5.03
2023-04-16T05:33:28.174Z,4.57
2023-04-16T05:35:54.828Z,4.30
2023-04-16T05:38:21.404Z,4.50
2023-04-16T05:40:48.065Z,5.32
2023-04-16T05:43:14.656Z,6.15
2023-04-16T05:45:41.500Z,5.00
2023-04-16T05:48:11.867Z,4.80
2023-04-16T05:50:38.533Z,4.55
2023-04-16T05:53:07.394Z,5.13
2023-04-16T05:55:35.600Z,5.25
2023-04-16T05:58:04.410Z,4.75
2023-04-16T06:00:34.458Z,5.18
2023-04-16T06:03:01.372Z,4.57
2023-04-16T06:05:29.577Z,4.50
2023-04-16T06:07:56.614Z,5.20
2023-04-16T06:10:23.449Z,5.32
2023-04-16T06:12:50.074Z,5.28
2023-04-16T06:15:16.785Z,5.28
2023-04-16T06:17:43.478Z,5.53
2023-04-16T06:20:10.945Z,6.03
2023-04-16T06:22:37.822Z,6.63
2023-04-16T06:25:04.744Z,5.97
2023-04-16T06:27:31.552Z,5.72
2023-04-16T06:29:58.573Z,6.60
2023-04-16T06:32:25.561Z,6.53
2023-04-16T06:34:52.264Z,7.32
2023-04-16T06:37:18.954Z,6.75
2023-04-16T06:39:45.842Z,8.02
2023-04-16T06:42:12.625Z,8.75
2023-04-16T06:44:39.317Z,9.90
2023-04-16T06:47:06.209Z,9.93
2023-04-16T06:49:32.856Z,9.32
2023-04-16T06:51:59.552Z,9.73
2023-04-16T06:54:26.183Z,9.23
2023-04-16T06:56:52.817Z,9.25
2023-04-16T06:59:19.496Z,8.85
2023-04-16T07:01:46.825Z,9.20
2023-04-16T07:04:13.537Z,9.57
2023-04-16T07:06:40.373Z,9.88
2023-04-16T07:09:07.133Z,10.20
2023-04-16T07:11:34.439Z,9.45
2023-04-16T07:14:01.244Z,9.63
2023-04-16T07:16:27.931Z,10.60
2023-04-16T07:18:54.517Z,11.55
2023-04-16T07:21:22.204Z,9.70
2023-04-16T07:23:48.803Z,10.63
2023-04-16T07:26:15.474Z,10.43
2023-04-16T07:28:42.114Z,10.68
2023-04-16T07:31:09.364Z,11.60
2023-04-16T07:33:36.055Z,10.18
2023-04-16T07:36:02.966Z,10.43
2023-04-16T07:38:29.689Z,11.05
2023-04-16T07:40:57.060Z,10.48
2023-04-16T07:43:23.873Z,10.20
2023-04-16T07:45:50.868Z,11.70
2023-04-16T07:48:18.299Z,10.25
2023-04-16T07:50:45.150Z,11.52
2023-04-16T07:53:12.253Z,12.70
2023-04-16T07:55:39.075Z,12.38
2023-04-16T07:58:07.430Z,12.80
2023-04-16T08:00:34.176Z,11.90
2023-04-16T08:03:01.338Z,11.75
2023-04-16T08:05:28.150Z,13.40
2023-04-16T08:07:54.946Z,11.82
2023-04-16T08:10:21.677Z,12.75
2023-04-16T08:12:48.381Z,13.20
2023-04-16T08:15:15.291Z,12.00
2023-04-16T08:17:42.238Z,13.23
2023-04-16T08:20:11.242Z,13.77
2023-04-16T08:22:39.650Z,12.95
2023-04-16T08:25:07.002Z,13.77
2023-04-16T08:27:33.801Z,13.60
2023-04-16T08:30:03.621Z,14.00
2023-04-16T08:32:30.582Z,14.95
2023-04-16T08:35:00.237Z,12.90
2023-04-16T08:37:27.083Z,12.20
2023-04-16T08:39:53.989Z,11.45
2023-04-16T08:42:41.767Z,12.07
2023-04-16T08:45:17.334Z,12.95
2023-04-16T08:47:52.446Z,13.82
2023-04-16T08:50:26.889Z,13.93
2023-04-16T08:52:59.535Z,16.15
2023-04-16T08:55:50.587Z,15.02
2023-04-16T08:58:28.175Z,14.65
2023-04-16T09:00:56.350Z,14.98
2023-04-16T09:03:35.662Z,16.08
2023-04-16T09:06:04.503Z,14.63
2023-04-16T09:08:32.342Z,14.43
2023-04-16T09:10:59.670Z,15.55
2023-04-16T09:13:26.850Z,17.90
2023-04-16T09:15:54.322Z,15.07
2023-04-16T09:18:21.506Z,16.70
2023-04-16T09:20:49.723Z,15.77
2023-04-16T09:23:16.423Z,15.00
2023-04-16T09:25:43.198Z,15.13
2023-04-16T09:28:11.160Z,15.50
2023-04-16T09:30:41.161Z,15.10
2023-04-16T09:33:24.508Z,17.30
2023-04-16T09:35:53.327Z,16.77
2023-04-16T09:38:20.832Z,15.25
2023-04-16T09:41:05.930Z,17.90
2023-04-16T09:43:32.670Z,16.17
2023-04-16T09:45:59.345Z,15.48
2023-04-16T09:48:30.126Z,16.38
2023-04-16T09:50:57.239Z,14.18
2023-04-16T09:53:26.698Z,13.70
2023-04-16T09:56:06.681Z,14.25
2023-04-16T09:58:43.399Z,13.45
2023-04-16T10:01:12.440Z,13.63
2023-04-16T10:03:41.004Z,14.95
2023-04-16T10:06:16.588Z,14.65
2023-04-16T10:08:49.608Z,15.85
2023-04-16T10:14:03.177Z,16.92
2023-04-16T10:16:30.894Z,17.42
2023-04-16T10:19:03.113Z,17.50
2023-04-16T10:21:34.279Z,16.90
2023-04-16T10:24:04.759Z,16.83
2023-04-16T10:26:36.134Z,16.38
2023-04-16T10:29:03.055Z,16.10
2023-04-16T10:31:30.515Z,15.38
2023-04-16T10:33:59.024Z,15.07
2023-04-16T10:36:29.069Z,16.63
2023-04-16T10:39:06.564Z,16.58
2023-04-16T10:41:36.785Z,16.65
2023-04-16T10:44:10.060Z,17.42
2023-04-16T10:46:41.647Z,15.18
2023-04-16T10:49:19.328Z,16.27
2023-04-16T10:52:08.196Z,16.80
2023-04-16T10:54:36.745Z,16.08
2023-04-16T10:57:05.044Z,19.08
2023-04-16T11:01:10.833Z,14.27
2023-04-16T11:03:43.633Z,14.50
2023-04-16T11:06:52.669Z,14.75
2023-04-16T11:10:09.247Z,15.23
2023-04-16T11:12:57.360Z,16.33
2023-04-16T11:15:28.505Z,15.43
2023-04-16T11:18:07.800Z,14.80
2023-04-16T11:21:30.574Z,16.02
2023-04-16T11:24:04.896Z,15.07
2023-04-16T11:26:44.555Z,15.90
2023-04-16T11:29:27.659Z,18.00
2023-04-16T11:31:58.594Z,16.17
2023-04-16T11:34:39.647Z,16.45
2023-04-16T11:37:06.864Z,16.45
2023-04-16T11:39:39.748Z,17.05
2023-04-16T11:42:13.086Z,17.08
2023-04-16T11:44:47.012Z,15.45
2023-04-16T11:47:16.651Z,16.05
2023-04-16T11:49:43.865Z,15.68
2023-04-16T11:52:11.578Z,15.50
2023-04-16T11:54:41.837Z,14.93
2023-04-16T11:57:14.565Z,14.88
2023-04-16T12:00:03.986Z,15.53
2023-04-16T12:02:46.279Z,14.48
2023-04-16T12:05:37.653Z,13.93
2023-04-16T12:08:20.048Z,13.98
2023-04-16T12:10:56.953Z,13.90
2023-04-16T12:13:31.110Z,14.15
2023-04-16T12:16:02.093Z,15.02
2023-04-16T12:18:29.091Z,14.00
2023-04-16T12:20:56.100Z,15.70
2023-04-16T12:23:32.409Z,14.30
2023-04-16T12:26:10.840Z,14.43
2023-04-16T12:28:43.027Z,15.85
2023-04-16T12:31:20.520Z,16.35
2023-04-16T12:34:02.875Z,15.52
2023-04-16T12:36:29.743Z,16.45
2023-04-16T12:39:06.181Z,16.98
2023-04-16T12:41:39.486Z,15.98
2023-04-16T12:44:12.197Z,16.27
2023-04-16T12:46:40.505Z,16.33
2023-04-16T12:49:08.953Z,15.15
2023-04-16T12:51:37.113Z,15.95
2023-04-16T12:54:05.844Z,15.50
2023-04-16T12:56:33.383Z,15.60
2023-04-16T12:59:00.194Z,15.55
2023-04-16T13:01:26.867Z,16.27
2023-04-16T13:03:53.788Z,15.23
2023-04-16T13:06:21.145Z,16.23
2023-04-16T13:08:47.782Z,15.85
2023-04-16T13:11:14.741Z,15.82
2023-04-16T13:13:41.398Z,16.50
2023-04-16T13:16:11.443Z,17.13
2023-04-16T13:18:38.299Z,15.88
2023-04-16T13:21:05.117Z,16.10
2023-04-16T13:23:31.780Z,15.77
2023-04-16T13:25:58.477Z,16.88
2023-04-16T13:28:26.539Z,16.40
2023-04-16T13:30:54.589Z,16.38
2023-04-16T13:33:21.833Z,16.17
2023-04-16T13:35:52.903Z,16.10
2023-04-16T13:38:19.469Z,16.75
2023-04-16T13:40:46.193Z,17.73
2023-04-16T13:43:19.038Z,16.90
2023-04-16T13:45:46.241Z,17.52
2023-04-16T13:48:12.894Z,16.48
2023-04-16T13:50:39.500Z,16.20
2023-04-16T13:53:06.418Z,17.00
2023-04-16T13:55:33.098Z,16.50
2023-04-16T13:57:59.820Z,18.05
2023-04-16T14:00:27.443Z,16.45
2023-04-16T14:02:54.248Z,17.90
2023-04-16T14:05:21.064Z,18.52
2023-04-16T14:07:47.732Z,16.73
2023-04-16T14:10:20.250Z,18.45
2023-04-16T14:12:46.839Z,18.30
2023-04-16T14:15:14.926Z,17.52
2023-04-16T14:17:45.382Z,17.45
2023-04-16T14:20:13.769Z,17.92
2023-04-16T14:22:42.619Z,16.30
2023-04-16T14:25:09.432Z,17.85
2023-04-16T14:27:36.161Z,19.73
2023-04-16T14:30:02.790Z,19.63
2023-04-16T14:32:30.504Z,19.92
2023-04-16T14:34:57.474Z,18.15
2023-04-16T14:37:24.499Z,19.13
2023-04-16T14:39:51.169Z,18.67
2023-04-16T14:42:17.803Z,18.75
2023-04-16T14:44:44.729Z,19.20
2023-04-16T14:47:11.562Z,20.13
2023-04-16T14:49:38.280Z,19.08
2023-04-16T14:52:05.889Z,19.75
2023-04-16T14:54:33.613Z,18.88
2023-04-16T14:57:00.492Z,19.25
2023-04-16T14:59:27.251Z,18.13
2023-04-16T15:01:55.948Z,21.30
2023-04-16T15:04:22.793Z,20.90
2023-04-16T15:06:50.133Z,20.67
2023-04-16T15:09:16.847Z,22.77
2023-04-16T15:11:43.557Z,21.45
2023-04-16T15:14:10.458Z,22.02
2023-04-16T15:16:37.447Z,23.05
2023-04-16T15:19:05.078Z,22.17
2023-04-16T15:21:32.017Z,22.73
2023-04-16T15:23:59.339Z,22.52
2023-04-16T15:26:26.197Z,22.73
2023-04-16T15:28:53.056Z,24.55
2023-04-16T15:31:21.118Z,22.75
2023-04-16T15:33:48.883Z,23.35
2023-04-16T15:36:18.503Z,23.98
2023-04-16T15:38:48.185Z,24.65
2023-04-16T15:41:17.209Z,23.33
2023-04-16T15:43:43.939Z,23.80
2023-04-16T15:46:10.869Z,23.60
2023-04-16T15:48:37.590Z,22.50
2023-04-16T15:51:04.400Z,23.13
2023-04-16T15:53:31.208Z,23.42
2023-04-16T15:55:58.191Z,22.95
2023-04-16T15:58:24.843Z,21.52
2023-04-16T16:00:51.663Z,21.05
2023-04-16T16:03:18.696Z,22.13
2023-04-16T16:05:48.553Z,20.77
2023-04-16T16:08:16.059Z,19.75
2023-04-16T16:10:43.238Z,19.77
2023-04-16T16:13:13.214Z,19.52
2023-04-16T16:15:42.914Z,20.10
2023-04-16T16:18:10.026Z,20.80
2023-04-16T16:20:36.774Z,20.45
2023-04-16T16:23:03.586Z,19.30
2023-04-16T16:25:33.556Z,18.98
2023-04-16T16:28:00.606Z,18.77
2023-04-16T16:30:29.121Z,19.38
2023-04-16T16:32:55.898Z,17.23
2023-04-16T16:35:22.584Z,19.33
2023-04-16T16:37:49.467Z,18.08
2023-04-16T16:40:16.144Z,17.50
2023-04-16T16:42:42.839Z,16.52
2023-04-16T16:45:10.236Z,16.88
2023-04-16T16:47:36.813Z,17.55
2023-04-16T16:50:04.008Z,16.50
2023-04-16T16:52:30.764Z,16.42
2023-04-16T16:54:57.409Z,15.55
2023-04-16T16:57:24.920Z,15.30
2023-04-16T16:59:51.589Z,14.82
2023-04-16T17:02:18.668Z,15.43
2023-04-16T17:04:45.527Z,14.40
2023-04-16T17:07:12.331Z,15.32
2023-04-16T17:09:39.354Z,14.68
2023-04-16T17:12:06.622Z,14.73
2023-04-16T17:14:34.007Z,18.83
2023-04-16T17:17:00.790Z,17.33
2023-04-16T17:19:27.599Z,17.00
2023-04-16T17:21:54.297Z,16.67
2023-04-16T17:24:21.094Z,17.33
2023-04-16T17:26:47.690Z,16.60
2023-04-16T17:29:14.348Z,18.75
2023-04-16T17:31:41.218Z,16.60
2023-04-16T17:34:10.464Z,17.75
2023-04-16T17:36:37.331Z,16.42
2023-04-16T17:39:06.641Z,16.05
2023-04-16T17:41:33.308Z,16.13
2023-04-16T17:44:02.742Z,15.50
2023-04-16T17:46:29.418Z,17.77
2023-04-16T17:48:56.162Z,18.25
2023-04-16T17:51:22.806Z,18.55
2023-04-16T17:53:49.496Z,17.50
2023-04-16T17:56:16.473Z,17.13
2023-04-16T17:58:43.180Z,18.58
2023-04-16T18:01:09.951Z,17.67
2023-04-16T18:03:37.192Z,16.20
2023-04-16T18:06:04.475Z,17.00
2023-04-16T18:08:31.277Z,16.67
2023-04-16T18:10:58.052Z,17.05
2023-04-16T18:13:24.778Z,17.33
2023-04-16T18:15:51.838Z,17.65
2023-04-16T18:18:20.176Z,18.40
2023-04-16T18:20:46.805Z,19.08
2023-04-16T18:23:20.137Z,19.40
2023-04-16T18:25:48.838Z,21.58
2023-04-16T18:28:21.390Z,23.52
2023-04-16T18:35:53.692Z,24.83
2023-04-16T18:38:26.701Z,23.77
2023-04-16T18:41:02.690Z,26.05
2023-04-16T18:43:38.411Z,24.95
2023-04-16T18:46:35.744Z,25.58
2023-04-16T18:49:02.575Z,23.73
2023-04-16T18:51:31.717Z,25.77
2023-04-16T18:54:01.569Z,24.58
2023-04-16T18:56:34.251Z,27.05
2023-04-16T18:59:01.050Z,23.60
2023-04-16T19:01:28.037Z,24.77
2023-04-16T19:03:56.105Z,24.08
2023-04-16T19:06:22.970Z,22.27
2023-04-16T19:08:50.129Z,22.50
2023-04-16T19:11:19.396Z,21.85
2023-04-16T19:13:46.578Z,22.45
2023-04-16T19:16:13.457Z,20.10
2023-04-16T19:18:40.247Z,21.70
2023-04-16T19:21:13.563Z,23.42
2023-04-16T19:23:42.459Z,21.98
2023-04-16T19:26:12.468Z,22.85
2023-04-16T19:28:39.872Z,20.92
2023-04-16T19:31:06.638Z,21.33
2023-04-16T19:33:33.380Z,23.38
2023-04-16T19:36:00.513Z,22.52
2023-04-16T19:38:27.472Z,23.02
2023-04-16T19:40:54.185Z,22.38
2023-04-16T19:43:21.335Z,21.08
2023-04-16T19:45:53.437Z,23.63
2023-04-16T19:48:20.797Z,23.95
2023-04-16T19:50:48.095Z,25.98
2023-04-16T19:53:15.818Z,24.30
2023-04-16T19:55:43.160Z,26.88
2023-04-16T19:58:10.082Z,25.52
2023-04-16T20:00:38.898Z,25.85
2023-04-16T20:03:06.083Z,26.27
2023-04-16T20:05:32.741Z,27.15
2023-04-16T20:07:59.592Z,27.15
2023-04-16T20:10:26.616Z,27.77
2023-04-16T20:12:56.023Z,29.23
2023-04-16T20:15:22.715Z,28.63
2023-04-16T20:17:49.370Z,26.88
2023-04-16T20:20:16.674Z,29.30
2023-04-16T20:22:43.814Z,29.10
2023-04-16T20:25:10.587Z,29.50
2023-04-16T20:27:37.290Z,27.67
2023-04-16T20:30:05.499Z,27.75
2023-04-16T20:32:32.371Z,28.98
2023-04-16T20:34:59.813Z,29.33
2023-04-16T20:37:29.474Z,30.05
2023-04-16T20:39:56.437Z,28.88
2023-04-16T20:42:23.505Z,30.52
2023-04-16T20:44:56.592Z,31.15
2023-04-16T20:47:25.744Z,31.35
2023-04-16T20:49:52.892Z,29.02
2023-04-16T20:52:19.745Z,29.00
2023-04-16T20:54:47.218Z,28.80
2023-04-16T20:57:13.906Z,29.33
2023-04-16T20:59:40.478Z,28.88
2023-04-16T21:02:07.913Z,30.00
2023-04-16T21:04:34.727Z,30.50
2023-04-16T21:07:04.137Z,29.00
2023-04-16T21:09:31.535Z,28.30
2023-04-16T21:11:58.123Z,29.10
2023-04-16T21:14:24.708Z,30.50
2023-04-16T21:16:54.908Z,29.23
2023-04-16T21:19:24.385Z,30.02
2023-04-16T21:21:51.376Z,29.83
2023-04-16T21:24:17.985Z,29.45
2023-04-16T21:26:44.750Z,27.73
2023-04-16T21:29:11.635Z,27.23
2023-04-16T21:31:38.466Z,27.17
2023-04-16T21:34:05.275Z,30.00
2023-04-16T21:36:33.681Z,28.17
2023-04-16T21:39:00.327Z,29.25
2023-04-16T21:41:27.158Z,29.05
2023-04-16T21:43:53.809Z,29.30
2023-04-16T21:46:23.337Z,27.33
2023-04-16T21:48:49.956Z,27.45
2023-04-16T21:51:16.794Z,29.23
2023-04-16T21:53:43.508Z,28.45
2023-04-16T21:56:10.130Z,27.05
2023-04-16T21:58:36.833Z,28.63
2023-04-16T22:01:03.470Z,28.45
2023-04-16T22:03:31.128Z,29.30
2023-04-16T22:06:01.035Z,28.90
2023-04-16T22:08:31.424Z,28.30
2023-04-16T22:11:04.029Z,29.45
2023-04-16T22:13:32.452Z,30.67
2023-04-16T22:16:02.914Z,30.65
2023-04-16T22:18:33.076Z,29.50
2023-04-16T22:21:00.016Z,29.67
2023-04-16T22:23:26.633Z,30.65
2023-04-16T22:25:55.608Z,29.75
2023-04-16T22:28:22.828Z,30.10
2023-04-16T22:30:49.795Z,32.10
2023-04-16T22:33:16.550Z,38.65
2023-04-16T22:35:43.395Z,37.88
2023-04-16T22:38:10.452Z,39.25
2023-04-16T22:40:37.164Z,46.53
2023-04-16T22:43:03.772Z,35.38
2023-04-16T22:45:30.424Z,36.08
2023-04-16T22:47:57.037Z,33.50
2023-04-16T22:50:23.736Z,33.72
2023-04-16T22:52:50.391Z,31.33
2023-04-16T22:55:17.000Z,32.97
2023-04-16T22:57:43.555Z,35.10
2023-04-16T23:00:17.912Z,32.83
2023-04-16T23:02:45.197Z,31.33
2023-04-16T23:05:12.259Z,33.80
2023-04-16T23:07:38.961Z,31.10
2023-04-16T23:10:06.272Z,33.22
2023-04-16T23:12:32.922Z,33.72
2023-04-16T23:15:00.845Z,31.38
2023-04-16T23:17:28.119Z,32.63
2023-04-16T23:19:54.933Z,32.78
2023-04-16T23:22:21.554Z,34.55
2023-04-16T23:24:48.204Z,32.15
2023-04-16T23:27:16.153Z,34.33
2023-04-16T23:29:46.065Z,32.40
2023-04-16T23:32:12.888Z,34.03
2023-04-16T23:34:39.537Z,34.35
2023-04-16T23:37:06.172Z,33.53
2023-04-16T23:39:32.811Z,33.25
2023-04-16T23:41:59.781Z,33.58
2023-04-16T23:44:26.421Z,33.78
2023-04-16T23:46:53.227Z,35.03
2023-04-16T23:49:20.006Z,34.75
2023-04-16T23:51:46.616Z,33.97
2023-04-16T23:54:13.172Z,36.55
2023-04-16T23:56:39.869Z,36.17
2023-04-16T23:59:06.433Z,36.08
